sensor_id;sensor_type;location;lat;lon;timestamp;temperature;humidity
8465;DHT22;4269;52.458;13.430;2023-07-31T00:01:34;25.80;99.90
8465;DHT22;4269;52.458;13.430;2023-07-31T00:04:00;25.80;99.90
8465;DHT22;4269;52.458;13.430;2023-07-31T00:06:27;25.80;99.90
8465;DHT22;4269;52.458;13.430;2023-07-31T00:08:53;26.20;99.90
8465;DHT22;4269;52.458;13.430;2023-07-31T00:11:20;25.80;99.90
8465;DHT22;4269;52.458;13.430;2023-07-31T00:13:47;25.80;99.90
8465;DHT22;4269;52.458;13.430;2023-07-31T00:16:14;26.00;99.90
8465;DHT22;4269;52.458;13.430;2023-07-31T00:18:40;25.80;99.90
8465;DHT22;4269;52.458;13.430;2023-07-31T00:21:07;26.10;99.90
8465;DHT22;4269;52.458;13.430;2023-07-31T00:26:00;25.80;99.90
8465;DHT22;4269;52.458;13.430;2023-07-31T00:28:27;25.40;99.90
8465;DHT22;4269;52.458;13.430;2023-07-31T00:30:55;25.80;99.90
8465;DHT22;4269;52.458;13.430;2023-07-31T00:33:21;25.80;99.90
8465;DHT22;4269;52.458;13.430;2023-07-31T00:35:48;25.80;99.90
8465;DHT22;4269;52.458;13.430;2023-07-31T00:38:15;25.90;99.90
8465;DHT22;4269;52.458;13.430;2023-07-31T00:40:41;25.90;99.90
8465;DHT22;4269;52.458;13.430;2023-07-31T00:43:08;25.80;99.90
8465;DHT22;4269;52.458;13.430;2023-07-31T00:48:03;25.80;99.90
8465;DHT22;4269;52.458;13.430;2023-07-31T00:50:31;25.80;99.90
8465;DHT22;4269;52.458;13.430;2023-07-31T00:52:59;25.70;99.90
8465;DHT22;4269;52.458;13.430;2023-07-31T00:55:26;25.80;99.90
8465;DHT22;4269;52.458;13.430;2023-07-31T00:57:52;25.90;99.90
8465;DHT22;4269;52.458;13.430;2023-07-31T01:00:21;25.90;99.90
8465;DHT22;4269;52.458;13.430;2023-07-31T01:02:48;26.00;99.90
8465;DHT22;4269;52.458;13.430;2023-07-31T01:05:17;25.90;99.90
8465;DHT22;4269;52.458;13.430;2023-07-31T01:07:51;26.00;99.90
8465;DHT22;4269;52.458;13.430;2023-07-31T01:10:21;25.80;99.90
8465;DHT22;4269;52.458;13.430;2023-07-31T01:12:50;25.90;99.90
8465;DHT22;4269;52.458;13.430;2023-07-31T01:15:17;25.80;99.90
8465;DHT22;4269;52.458;13.430;2023-07-31T01:17:44;25.80;99.90
8465;DHT22;4269;52.458;13.430;2023-07-31T01:20:12;25.90;99.90
8465;DHT22;4269;52.458;13.430;2023-07-31T01:22:59;25.80;99.90
8465;DHT22;4269;52.458;13.430;2023-07-31T01:25:50;25.80;99.90
8465;DHT22;4269;52.458;13.430;2023-07-31T01:28:20;25.90;99.90
8465;DHT22;4269;52.458;13.430;2023-07-31T01:30:48;25.80;99.90
8465;DHT22;4269;52.458;13.430;2023-07-31T01:33:16;25.80;99.90
8465;DHT22;4269;52.458;13.430;2023-07-31T01:35:45;25.80;99.90
8465;DHT22;4269;52.458;13.430;2023-07-31T01:40:42;25.80;99.90
8465;DHT22;4269;52.458;13.430;2023-07-31T01:43:10;25.80;99.90
8465;DHT22;4269;52.458;13.430;2023-07-31T01:45:37;25.80;99.90
8465;DHT22;4269;52.458;13.430;2023-07-31T01:48:03;25.80;99.90
8465;DHT22;4269;52.458;13.430;2023-07-31T01:50:30;25.80;99.90
8465;DHT22;4269;52.458;13.430;2023-07-31T01:52:56;25.70;99.90
8465;DHT22;4269;52.458;13.430;2023-07-31T01:55:23;25.80;99.90
8465;DHT22;4269;52.458;13.430;2023-07-31T02:00:19;25.80;99.90
8465;DHT22;4269;52.458;13.430;2023-07-31T02:02:45;26.00;99.90
8465;DHT22;4269;52.458;13.430;2023-07-31T02:05:12;25.80;99.90
8465;DHT22;4269;52.458;13.430;2023-07-31T02:10:06;25.70;99.90
8465;DHT22;4269;52.458;13.430;2023-07-31T02:15:00;25.80;99.90
8465;DHT22;4269;52.458;13.430;2023-07-31T02:17:28;25.80;99.90
8465;DHT22;4269;52.458;13.430;2023-07-31T02:19:55;25.50;99.90
8465;DHT22;4269;52.458;13.430;2023-07-31T02:22:21;25.80;99.90
8465;DHT22;4269;52.458;13.430;2023-07-31T02:27:15;25.80;99.90
8465;DHT22;4269;52.458;13.430;2023-07-31T02:32:08;25.70;99.90
8465;DHT22;4269;52.458;13.430;2023-07-31T02:34:36;25.80;99.90
8465;DHT22;4269;52.458;13.430;2023-07-31T02:37:03;25.80;99.90
8465;DHT22;4269;52.458;13.430;2023-07-31T02:39:29;25.80;99.90
8465;DHT22;4269;52.458;13.430;2023-07-31T02:41:56;25.70;99.90
8465;DHT22;4269;52.458;13.430;2023-07-31T02:44:22;26.00;99.90
8465;DHT22;4269;52.458;13.430;2023-07-31T02:46:49;25.80;99.90
8465;DHT22;4269;52.458;13.430;2023-07-31T02:49:15;25.60;99.90
8465;DHT22;4269;52.458;13.430;2023-07-31T02:51:43;25.80;99.90
8465;DHT22;4269;52.458;13.430;2023-07-31T02:54:10;25.80;99.90
8465;DHT22;4269;52.458;13.430;2023-07-31T02:56:36;25.80;99.90
8465;DHT22;4269;52.458;13.430;2023-07-31T02:59:03;25.70;99.90
8465;DHT22;4269;52.458;13.430;2023-07-31T03:01:29;25.80;99.90
8465;DHT22;4269;52.458;13.430;2023-07-31T03:03:56;25.80;99.90
8465;DHT22;4269;52.458;13.430;2023-07-31T03:06:22;25.80;99.90
8465;DHT22;4269;52.458;13.430;2023-07-31T03:08:50;26.10;99.90
8465;DHT22;4269;52.458;13.430;2023-07-31T03:13:43;25.70;99.90
8465;DHT22;4269;52.458;13.430;2023-07-31T03:16:10;25.70;99.90
8465;DHT22;4269;52.458;13.430;2023-07-31T03:18:36;25.80;99.90
8465;DHT22;4269;52.458;13.430;2023-07-31T03:21:04;25.90;99.90
8465;DHT22;4269;52.458;13.430;2023-07-31T03:23:30;25.70;99.90
8465;DHT22;4269;52.458;13.430;2023-07-31T03:25:59;25.70;99.90
8465;DHT22;4269;52.458;13.430;2023-07-31T03:28:26;25.60;99.90
8465;DHT22;4269;52.458;13.430;2023-07-31T03:30:53;25.50;99.90
8465;DHT22;4269;52.458;13.430;2023-07-31T03:33:19;25.70;99.90
8465;DHT22;4269;52.458;13.430;2023-07-31T03:35:46;25.10;99.90
8465;DHT22;4269;52.458;13.430;2023-07-31T03:38:13;25.80;99.90
8465;DHT22;4269;52.458;13.430;2023-07-31T03:43:08;25.70;99.90
8465;DHT22;4269;52.458;13.430;2023-07-31T03:45:34;25.70;99.90
8465;DHT22;4269;52.458;13.430;2023-07-31T03:48:01;25.70;99.90
8465;DHT22;4269;52.458;13.430;2023-07-31T03:50:28;25.60;99.90
8465;DHT22;4269;52.458;13.430;2023-07-31T03:52:55;25.50;99.90
8465;DHT22;4269;52.458;13.430;2023-07-31T03:55:21;25.80;99.90
8465;DHT22;4269;52.458;13.430;2023-07-31T03:57:48;25.70;99.90
8465;DHT22;4269;52.458;13.430;2023-07-31T04:00:16;25.70;99.90
8465;DHT22;4269;52.458;13.430;2023-07-31T04:02:43;25.50;99.90
8465;DHT22;4269;52.458;13.430;2023-07-31T04:05:09;25.80;99.90
8465;DHT22;4269;52.458;13.430;2023-07-31T04:07:36;25.70;99.90
8465;DHT22;4269;52.458;13.430;2023-07-31T04:10:03;25.90;99.90
8465;DHT22;4269;52.458;13.430;2023-07-31T04:12:30;26.50;99.90
8465;DHT22;4269;52.458;13.430;2023-07-31T04:14:56;25.80;99.90
8465;DHT22;4269;52.458;13.430;2023-07-31T04:17:24;25.80;99.90
8465;DHT22;4269;52.458;13.430;2023-07-31T04:19:51;25.80;99.90
8465;DHT22;4269;52.458;13.430;2023-07-31T04:22:17;25.80;99.90
8465;DHT22;4269;52.458;13.430;2023-07-31T04:24:44;25.80;99.90
8465;DHT22;4269;52.458;13.430;2023-07-31T04:27:10;25.80;99.90
8465;DHT22;4269;52.458;13.430;2023-07-31T04:29:37;25.80;99.90
8465;DHT22;4269;52.458;13.430;2023-07-31T04:32:05;25.10;99.90
8465;DHT22;4269;52.458;13.430;2023-07-31T04:34:33;25.90;99.90
8465;DHT22;4269;52.458;13.430;2023-07-31T04:37:00;25.80;99.90
8465;DHT22;4269;52.458;13.430;2023-07-31T04:41:53;25.70;99.90
8465;DHT22;4269;52.458;13.430;2023-07-31T04:44:20;25.70;99.90
8465;DHT22;4269;52.458;13.430;2023-07-31T04:46:46;25.80;99.90
8465;DHT22;4269;52.458;13.430;2023-07-31T04:49:13;25.80;99.90
8465;DHT22;4269;52.458;13.430;2023-07-31T04:51:40;25.80;99.90
8465;DHT22;4269;52.458;13.430;2023-07-31T04:56:34;25.90;99.90
8465;DHT22;4269;52.458;13.430;2023-07-31T04:59:00;25.80;99.90
8465;DHT22;4269;52.458;13.430;2023-07-31T05:01:27;25.80;99.90
8465;DHT22;4269;52.458;13.430;2023-07-31T05:03:53;25.80;99.90
8465;DHT22;4269;52.458;13.430;2023-07-31T05:06:20;25.80;99.90
8465;DHT22;4269;52.458;13.430;2023-07-31T05:08:48;25.80;99.90
8465;DHT22;4269;52.458;13.430;2023-07-31T05:11:15;25.80;99.90
8465;DHT22;4269;52.458;13.430;2023-07-31T05:13:42;25.80;99.90
8465;DHT22;4269;52.458;13.430;2023-07-31T05:16:08;25.80;99.90
8465;DHT22;4269;52.458;13.430;2023-07-31T05:18:34;25.80;99.90
8465;DHT22;4269;52.458;13.430;2023-07-31T05:21:00;25.60;99.90
8465;DHT22;4269;52.458;13.430;2023-07-31T05:23:27;26.00;99.90
8465;DHT22;4269;52.458;13.430;2023-07-31T05:25:55;25.70;99.90
8465;DHT22;4269;52.458;13.430;2023-07-31T05:28:21;25.50;99.90
8465;DHT22;4269;52.458;13.430;2023-07-31T05:30:48;25.80;99.90
8465;DHT22;4269;52.458;13.430;2023-07-31T05:33:14;25.90;99.90
8465;DHT22;4269;52.458;13.430;2023-07-31T05:35:41;26.20;99.90
8465;DHT22;4269;52.458;13.430;2023-07-31T05:38:10;26.10;99.90
8465;DHT22;4269;52.458;13.430;2023-07-31T05:40:36;25.90;99.90
8465;DHT22;4269;52.458;13.430;2023-07-31T05:43:04;25.90;99.90
8465;DHT22;4269;52.458;13.430;2023-07-31T05:45:31;25.80;99.90
8465;DHT22;4269;52.458;13.430;2023-07-31T05:50:25;25.80;99.90
8465;DHT22;4269;52.458;13.430;2023-07-31T05:52:51;25.90;99.90
8465;DHT22;4269;52.458;13.430;2023-07-31T05:55:18;25.70;99.90
8465;DHT22;4269;52.458;13.430;2023-07-31T05:57:45;25.90;99.90
8465;DHT22;4269;52.458;13.430;2023-07-31T06:00:14;25.80;99.90
8465;DHT22;4269;52.458;13.430;2023-07-31T06:02:40;25.80;99.90
8465;DHT22;4269;52.458;13.430;2023-07-31T06:05:07;25.90;99.90
8465;DHT22;4269;52.458;13.430;2023-07-31T06:07:34;26.10;99.90
8465;DHT22;4269;52.458;13.430;2023-07-31T06:10:01;25.90;99.90
8465;DHT22;4269;52.458;13.430;2023-07-31T06:12:30;25.90;99.90
8465;DHT22;4269;52.458;13.430;2023-07-31T06:14:56;25.40;99.90
8465;DHT22;4269;52.458;13.430;2023-07-31T06:17:24;26.00;99.90
8465;DHT22;4269;52.458;13.430;2023-07-31T06:19:52;25.80;99.90
8465;DHT22;4269;52.458;13.430;2023-07-31T06:22:18;25.90;99.90
8465;DHT22;4269;52.458;13.430;2023-07-31T06:24:45;25.70;99.90
8465;DHT22;4269;52.458;13.430;2023-07-31T06:27:12;26.80;99.90
8465;DHT22;4269;52.458;13.430;2023-07-31T06:29:38;25.90;99.90
8465;DHT22;4269;52.458;13.430;2023-07-31T06:32:05;25.90;99.90
8465;DHT22;4269;52.458;13.430;2023-07-31T06:34:33;25.90;99.90
8465;DHT22;4269;52.458;13.430;2023-07-31T06:37:00;25.90;99.90
8465;DHT22;4269;52.458;13.430;2023-07-31T06:39:26;25.70;99.90
8465;DHT22;4269;52.458;13.430;2023-07-31T06:41:53;25.90;99.90
8465;DHT22;4269;52.458;13.430;2023-07-31T06:44:19;25.90;99.90
8465;DHT22;4269;52.458;13.430;2023-07-31T06:51:41;25.90;99.90
8465;DHT22;4269;52.458;13.430;2023-07-31T06:54:09;25.90;99.90
8465;DHT22;4269;52.458;13.430;2023-07-31T06:59:03;25.90;99.90
8465;DHT22;4269;52.458;13.430;2023-07-31T07:03:56;25.90;99.90
8465;DHT22;4269;52.458;13.430;2023-07-31T07:06:23;26.00;99.90
8465;DHT22;4269;52.458;13.430;2023-07-31T07:08:51;26.20;99.90
8465;DHT22;4269;52.458;13.430;2023-07-31T07:11:17;26.00;99.90
8465;DHT22;4269;52.458;13.430;2023-07-31T07:13:44;25.90;99.90
8465;DHT22;4269;52.458;13.430;2023-07-31T07:16:10;26.10;99.90
8465;DHT22;4269;52.458;13.430;2023-07-31T07:18:36;26.00;99.90
8465;DHT22;4269;52.458;13.430;2023-07-31T07:21:03;26.10;99.90
8465;DHT22;4269;52.458;13.430;2023-07-31T07:23:30;26.00;99.90
8465;DHT22;4269;52.458;13.430;2023-07-31T07:25:57;26.00;99.90
8465;DHT22;4269;52.458;13.430;2023-07-31T07:30:51;25.70;99.90
8465;DHT22;4269;52.458;13.430;2023-07-31T07:33:18;25.80;99.90
8465;DHT22;4269;52.458;13.430;2023-07-31T07:35:45;25.60;99.90
8465;DHT22;4269;52.458;13.430;2023-07-31T07:38:13;25.20;99.90
8465;DHT22;4269;52.458;13.430;2023-07-31T07:40:40;25.10;99.90
8465;DHT22;4269;52.458;13.430;2023-07-31T07:43:08;25.30;99.90
8465;DHT22;4269;52.458;13.430;2023-07-31T07:45:34;25.10;99.90
8465;DHT22;4269;52.458;13.430;2023-07-31T07:48:01;25.10;99.90
8465;DHT22;4269;52.458;13.430;2023-07-31T07:50:27;25.10;99.90
8465;DHT22;4269;52.458;13.430;2023-07-31T07:52:53;25.20;99.90
8465;DHT22;4269;52.458;13.430;2023-07-31T07:55:20;25.20;99.90
8465;DHT22;4269;52.458;13.430;2023-07-31T07:57:47;25.70;99.90
8465;DHT22;4269;52.458;13.430;2023-07-31T08:00:17;25.20;99.90
8465;DHT22;4269;52.458;13.430;2023-07-31T08:02:43;25.30;99.90
8465;DHT22;4269;52.458;13.430;2023-07-31T08:05:10;25.90;99.90
8465;DHT22;4269;52.458;13.430;2023-07-31T08:07:36;25.50;99.90
8465;DHT22;4269;52.458;13.430;2023-07-31T08:10:03;25.60;99.90
8465;DHT22;4269;52.458;13.430;2023-07-31T08:12:30;25.50;99.90
8465;DHT22;4269;52.458;13.430;2023-07-31T08:14:56;25.80;99.90
8465;DHT22;4269;52.458;13.430;2023-07-31T08:17:26;25.80;99.90
8465;DHT22;4269;52.458;13.430;2023-07-31T08:19:53;25.80;99.90
8465;DHT22;4269;52.458;13.430;2023-07-31T08:22:19;25.70;99.90
8465;DHT22;4269;52.458;13.430;2023-07-31T08:27:12;25.90;99.90
8465;DHT22;4269;52.458;13.430;2023-07-31T08:29:39;25.90;99.90
8465;DHT22;4269;52.458;13.430;2023-07-31T08:32:06;25.80;99.90
8465;DHT22;4269;52.458;13.430;2023-07-31T08:34:34;25.90;99.90
8465;DHT22;4269;52.458;13.430;2023-07-31T08:37:00;25.70;99.90
8465;DHT22;4269;52.458;13.430;2023-07-31T08:39:27;26.10;99.90
8465;DHT22;4269;52.458;13.430;2023-07-31T08:41:58;26.10;99.90
8465;DHT22;4269;52.458;13.430;2023-07-31T08:44:25;26.10;99.90
8465;DHT22;4269;52.458;13.430;2023-07-31T08:46:51;26.10;99.90
8465;DHT22;4269;52.458;13.430;2023-07-31T08:49:20;26.20;99.90
8465;DHT22;4269;52.458;13.430;2023-07-31T08:51:50;26.10;99.90
8465;DHT22;4269;52.458;13.430;2023-07-31T08:56:43;26.20;99.90
8465;DHT22;4269;52.458;13.430;2023-07-31T08:59:11;26.00;99.90
8465;DHT22;4269;52.458;13.430;2023-07-31T09:01:43;26.20;99.90
8465;DHT22;4269;52.458;13.430;2023-07-31T09:04:14;26.00;99.90
8465;DHT22;4269;52.458;13.430;2023-07-31T09:06:42;26.40;99.90
8465;DHT22;4269;52.458;13.430;2023-07-31T09:09:12;26.20;99.90
8465;DHT22;4269;52.458;13.430;2023-07-31T09:11:38;26.10;99.90
8465;DHT22;4269;52.458;13.430;2023-07-31T09:14:05;26.30;99.90
8465;DHT22;4269;52.458;13.430;2023-07-31T09:16:34;26.30;99.90
8465;DHT22;4269;52.458;13.430;2023-07-31T09:19:00;26.10;99.90
8465;DHT22;4269;52.458;13.430;2023-07-31T09:21:28;26.30;99.90
8465;DHT22;4269;52.458;13.430;2023-07-31T09:23:55;26.30;99.90
8465;DHT22;4269;52.458;13.430;2023-07-31T09:26:33;26.50;99.90
8465;DHT22;4269;52.458;13.430;2023-07-31T09:29:01;26.10;99.90
8465;DHT22;4269;52.458;13.430;2023-07-31T09:31:48;26.30;99.90
8465;DHT22;4269;52.458;13.430;2023-07-31T09:34:15;26.40;99.90
8465;DHT22;4269;52.458;13.430;2023-07-31T09:36:42;26.40;99.90
8465;DHT22;4269;52.458;13.430;2023-07-31T09:39:09;26.30;99.90
8465;DHT22;4269;52.458;13.430;2023-07-31T09:41:38;26.10;99.90
8465;DHT22;4269;52.458;13.430;2023-07-31T09:44:05;26.30;99.90
8465;DHT22;4269;52.458;13.430;2023-07-31T09:46:32;26.30;99.90
8465;DHT22;4269;52.458;13.430;2023-07-31T09:49:05;26.40;99.90
8465;DHT22;4269;52.458;13.430;2023-07-31T09:51:32;26.30;99.90
8465;DHT22;4269;52.458;13.430;2023-07-31T09:54:04;26.30;99.90
8465;DHT22;4269;52.458;13.430;2023-07-31T09:56:32;26.40;99.90
8465;DHT22;4269;52.458;13.430;2023-07-31T09:59:01;26.40;99.90
8465;DHT22;4269;52.458;13.430;2023-07-31T10:01:28;26.40;99.90
8465;DHT22;4269;52.458;13.430;2023-07-31T10:03:55;26.40;99.90
8465;DHT22;4269;52.458;13.430;2023-07-31T10:06:22;26.30;99.90
8465;DHT22;4269;52.458;13.430;2023-07-31T10:08:51;26.30;99.90
8465;DHT22;4269;52.458;13.430;2023-07-31T10:11:19;26.40;99.90
8465;DHT22;4269;52.458;13.430;2023-07-31T10:13:46;26.20;99.90
8465;DHT22;4269;52.458;13.430;2023-07-31T10:16:14;26.40;99.90
8465;DHT22;4269;52.458;13.430;2023-07-31T10:18:42;26.40;99.90
8465;DHT22;4269;52.458;13.430;2023-07-31T10:23:36;26.30;99.90
8465;DHT22;4269;52.458;13.430;2023-07-31T10:26:05;26.40;99.90
8465;DHT22;4269;52.458;13.430;2023-07-31T10:28:34;26.60;99.90
8465;DHT22;4269;52.458;13.430;2023-07-31T10:31:03;26.40;99.90
8465;DHT22;4269;52.458;13.430;2023-07-31T10:33:31;26.50;99.90
8465;DHT22;4269;52.458;13.430;2023-07-31T10:36:14;26.40;99.90
8465;DHT22;4269;52.458;13.430;2023-07-31T10:38:43;26.40;99.90
8465;DHT22;4269;52.458;13.430;2023-07-31T10:41:10;26.60;99.90
8465;DHT22;4269;52.458;13.430;2023-07-31T10:43:37;26.40;99.90
8465;DHT22;4269;52.458;13.430;2023-07-31T10:46:06;26.40;99.90
8465;DHT22;4269;52.458;13.430;2023-07-31T10:48:35;26.50;99.90
8465;DHT22;4269;52.458;13.430;2023-07-31T10:51:07;26.40;99.90
8465;DHT22;4269;52.458;13.430;2023-07-31T10:53:34;26.50;99.90
8465;DHT22;4269;52.458;13.430;2023-07-31T10:56:01;26.50;99.90
8465;DHT22;4269;52.458;13.430;2023-07-31T10:58:28;26.50;99.90
8465;DHT22;4269;52.458;13.430;2023-07-31T11:00:58;26.60;99.90
8465;DHT22;4269;52.458;13.430;2023-07-31T11:03:26;26.50;99.90
8465;DHT22;4269;52.458;13.430;2023-07-31T11:06:00;26.40;99.90
8465;DHT22;4269;52.458;13.430;2023-07-31T11:08:30;26.50;99.90
8465;DHT22;4269;52.458;13.430;2023-07-31T11:11:07;26.50;99.90
8465;DHT22;4269;52.458;13.430;2023-07-31T11:13:40;26.60;99.90
8465;DHT22;4269;52.458;13.430;2023-07-31T11:16:07;26.50;99.90
8465;DHT22;4269;52.458;13.430;2023-07-31T11:18:34;26.50;99.90
8465;DHT22;4269;52.458;13.430;2023-07-31T11:21:03;26.60;99.90
8465;DHT22;4269;52.458;13.430;2023-07-31T11:23:30;26.80;99.90
8465;DHT22;4269;52.458;13.430;2023-07-31T11:26:00;26.60;99.90
8465;DHT22;4269;52.458;13.430;2023-07-31T11:28:31;26.60;99.90
8465;DHT22;4269;52.458;13.430;2023-07-31T11:30:58;26.50;99.90
8465;DHT22;4269;52.458;13.430;2023-07-31T11:33:25;26.60;99.90
8465;DHT22;4269;52.458;13.430;2023-07-31T11:35:52;26.60;99.90
8465;DHT22;4269;52.458;13.430;2023-07-31T11:38:24;27.30;99.90
8465;DHT22;4269;52.458;13.430;2023-07-31T11:40:51;26.60;99.90
8465;DHT22;4269;52.458;13.430;2023-07-31T11:43:18;26.70;99.90
8465;DHT22;4269;52.458;13.430;2023-07-31T11:45:47;26.60;99.90
8465;DHT22;4269;52.458;13.430;2023-07-31T11:48:19;26.70;99.90
8465;DHT22;4269;52.458;13.430;2023-07-31T11:50:45;26.60;99.90
8465;DHT22;4269;52.458;13.430;2023-07-31T11:53:13;26.40;99.90
8465;DHT22;4269;52.458;13.430;2023-07-31T11:55:41;26.60;99.90
8465;DHT22;4269;52.458;13.430;2023-07-31T11:58:08;26.60;99.90
8465;DHT22;4269;52.458;13.430;2023-07-31T12:00:35;26.60;99.90
8465;DHT22;4269;52.458;13.430;2023-07-31T12:03:01;26.60;99.90
8465;DHT22;4269;52.458;13.430;2023-07-31T12:05:28;26.90;99.90
8465;DHT22;4269;52.458;13.430;2023-07-31T12:07:55;26.30;99.90
8465;DHT22;4269;52.458;13.430;2023-07-31T12:10:26;26.60;99.90
8465;DHT22;4269;52.458;13.430;2023-07-31T12:12:59;26.60;99.90
8465;DHT22;4269;52.458;13.430;2023-07-31T12:15:30;26.60;99.90
8465;DHT22;4269;52.458;13.430;2023-07-31T12:17:57;26.60;99.90
8465;DHT22;4269;52.458;13.430;2023-07-31T12:20:23;26.60;99.90
8465;DHT22;4269;52.458;13.430;2023-07-31T12:22:50;26.60;99.90
8465;DHT22;4269;52.458;13.430;2023-07-31T12:25:17;26.60;99.90
8465;DHT22;4269;52.458;13.430;2023-07-31T12:27:44;26.40;99.90
8465;DHT22;4269;52.458;13.430;2023-07-31T12:33:05;26.60;99.90
8465;DHT22;4269;52.458;13.430;2023-07-31T12:35:36;26.50;99.90
8465;DHT22;4269;52.458;13.430;2023-07-31T12:38:03;26.50;99.90
8465;DHT22;4269;52.458;13.430;2023-07-31T12:45:23;26.90;99.90
8465;DHT22;4269;52.458;13.430;2023-07-31T12:47:50;26.60;99.90
8465;DHT22;4269;52.458;13.430;2023-07-31T12:50:18;26.50;99.90
8465;DHT22;4269;52.458;13.430;2023-07-31T12:52:44;26.50;99.90
8465;DHT22;4269;52.458;13.430;2023-07-31T12:55:11;26.70;99.90
8465;DHT22;4269;52.458;13.430;2023-07-31T12:57:39;26.50;99.90
8465;DHT22;4269;52.458;13.430;2023-07-31T13:00:07;26.50;99.90
8465;DHT22;4269;52.458;13.430;2023-07-31T13:02:33;26.50;99.90
8465;DHT22;4269;52.458;13.430;2023-07-31T13:07:28;26.50;99.90
8465;DHT22;4269;52.458;13.430;2023-07-31T13:09:55;26.50;99.90
8465;DHT22;4269;52.458;13.430;2023-07-31T13:12:21;26.50;99.90
8465;DHT22;4269;52.458;13.430;2023-07-31T13:17:14;26.40;99.90
8465;DHT22;4269;52.458;13.430;2023-07-31T13:22:08;26.60;99.90
8465;DHT22;4269;52.458;13.430;2023-07-31T13:24:36;26.50;99.90
8465;DHT22;4269;52.458;13.430;2023-07-31T13:27:03;26.70;99.90
8465;DHT22;4269;52.458;13.430;2023-07-31T13:31:57;26.60;99.90
8465;DHT22;4269;52.458;13.430;2023-07-31T13:34:24;26.70;99.90
8465;DHT22;4269;52.458;13.430;2023-07-31T13:36:50;26.60;99.90
8465;DHT22;4269;52.458;13.430;2023-07-31T13:39:17;26.70;99.90
8465;DHT22;4269;52.458;13.430;2023-07-31T13:41:44;26.60;99.90
8465;DHT22;4269;52.458;13.430;2023-07-31T13:44:11;26.40;99.90
8465;DHT22;4269;52.458;13.430;2023-07-31T13:46:37;26.50;99.90
8465;DHT22;4269;52.458;13.430;2023-07-31T13:49:04;26.60;99.90
8465;DHT22;4269;52.458;13.430;2023-07-31T13:51:31;26.80;99.90
8465;DHT22;4269;52.458;13.430;2023-07-31T13:53:57;27.00;99.90
8465;DHT22;4269;52.458;13.430;2023-07-31T13:56:24;26.70;99.90
8465;DHT22;4269;52.458;13.430;2023-07-31T13:58:52;26.40;99.90
8465;DHT22;4269;52.458;13.430;2023-07-31T14:01:18;26.90;99.90
8465;DHT22;4269;52.458;13.430;2023-07-31T14:03:45;26.50;99.90
8465;DHT22;4269;52.458;13.430;2023-07-31T14:06:11;26.70;99.90
8465;DHT22;4269;52.458;13.430;2023-07-31T14:08:37;26.80;99.90
8465;DHT22;4269;52.458;13.430;2023-07-31T14:11:04;27.00;99.90
8465;DHT22;4269;52.458;13.430;2023-07-31T14:13:30;26.90;99.90
8465;DHT22;4269;52.458;13.430;2023-07-31T14:15:58;27.10;99.90
8465;DHT22;4269;52.458;13.430;2023-07-31T14:18:25;26.90;99.90
8465;DHT22;4269;52.458;13.430;2023-07-31T14:20:51;26.90;99.90
8465;DHT22;4269;52.458;13.430;2023-07-31T14:23:18;26.90;99.90
8465;DHT22;4269;52.458;13.430;2023-07-31T14:25:45;26.90;99.90
8465;DHT22;4269;52.458;13.430;2023-07-31T14:28:11;27.00;99.90
8465;DHT22;4269;52.458;13.430;2023-07-31T14:30:38;26.90;99.90
8465;DHT22;4269;52.458;13.430;2023-07-31T14:33:06;26.80;99.90
8465;DHT22;4269;52.458;13.430;2023-07-31T14:35:33;26.80;99.90
8465;DHT22;4269;52.458;13.430;2023-07-31T14:38:00;26.80;99.90
8465;DHT22;4269;52.458;13.430;2023-07-31T14:40:26;26.80;99.90
8465;DHT22;4269;52.458;13.430;2023-07-31T14:42:53;26.80;99.90
8465;DHT22;4269;52.458;13.430;2023-07-31T14:45:20;26.70;99.90
8465;DHT22;4269;52.458;13.430;2023-07-31T14:47:46;26.90;99.90
8465;DHT22;4269;52.458;13.430;2023-07-31T14:50:15;26.80;99.90
8465;DHT22;4269;52.458;13.430;2023-07-31T14:52:42;26.90;99.90
8465;DHT22;4269;52.458;13.430;2023-07-31T14:55:09;26.70;99.90
8465;DHT22;4269;52.458;13.430;2023-07-31T15:00:04;26.70;99.90
8465;DHT22;4269;52.458;13.430;2023-07-31T15:02:34;26.70;99.90
8465;DHT22;4269;52.458;13.430;2023-07-31T15:05:01;26.70;99.90
8465;DHT22;4269;52.458;13.430;2023-07-31T15:07:29;26.70;99.90
8465;DHT22;4269;52.458;13.430;2023-07-31T15:09:55;26.60;99.90
8465;DHT22;4269;52.458;13.430;2023-07-31T15:12:22;26.60;99.90
8465;DHT22;4269;52.458;13.430;2023-07-31T15:14:49;27.20;99.90
8465;DHT22;4269;52.458;13.430;2023-07-31T15:17:17;26.80;99.90
8465;DHT22;4269;52.458;13.430;2023-07-31T15:19:43;26.50;99.90
8465;DHT22;4269;52.458;13.430;2023-07-31T15:22:10;26.50;99.90
8465;DHT22;4269;52.458;13.430;2023-07-31T15:24:38;26.60;99.90
8465;DHT22;4269;52.458;13.430;2023-07-31T15:27:05;26.60;99.90
8465;DHT22;4269;52.458;13.430;2023-07-31T15:29:33;26.70;99.90
8465;DHT22;4269;52.458;13.430;2023-07-31T15:34:29;26.00;99.90
8465;DHT22;4269;52.458;13.430;2023-07-31T15:36:55;25.60;99.90
8465;DHT22;4269;52.458;13.430;2023-07-31T15:39:22;26.50;99.90
8465;DHT22;4269;52.458;13.430;2023-07-31T15:41:50;26.50;99.90
8465;DHT22;4269;52.458;13.430;2023-07-31T15:44:16;26.50;99.90
8465;DHT22;4269;52.458;13.430;2023-07-31T15:49:10;26.40;99.90
8465;DHT22;4269;52.458;13.430;2023-07-31T15:51:38;26.50;99.90
8465;DHT22;4269;52.458;13.430;2023-07-31T15:54:05;26.50;99.90
8465;DHT22;4269;52.458;13.430;2023-07-31T15:56:31;26.50;99.90
8465;DHT22;4269;52.458;13.430;2023-07-31T15:58:59;26.50;99.90
8465;DHT22;4269;52.458;13.430;2023-07-31T16:01:27;26.50;99.90
8465;DHT22;4269;52.458;13.430;2023-07-31T16:03:53;26.60;99.90
8465;DHT22;4269;52.458;13.430;2023-07-31T16:06:20;26.50;99.90
8465;DHT22;4269;52.458;13.430;2023-07-31T16:11:13;26.60;99.90
8465;DHT22;4269;52.458;13.430;2023-07-31T16:13:40;26.50;99.90
8465;DHT22;4269;52.458;13.430;2023-07-31T16:16:08;26.40;99.90
8465;DHT22;4269;52.458;13.430;2023-07-31T16:18:34;25.80;99.90
8465;DHT22;4269;52.458;13.430;2023-07-31T16:23:27;26.80;99.90
8465;DHT22;4269;52.458;13.430;2023-07-31T16:25:54;25.70;99.90
8465;DHT22;4269;52.458;13.430;2023-07-31T16:28:20;26.10;99.90
8465;DHT22;4269;52.458;13.430;2023-07-31T16:33:15;26.30;99.90
8465;DHT22;4269;52.458;13.430;2023-07-31T16:35:42;26.30;99.90
8465;DHT22;4269;52.458;13.430;2023-07-31T16:38:08;26.30;99.90
8465;DHT22;4269;52.458;13.430;2023-07-31T16:40:35;26.40;99.90
8465;DHT22;4269;52.458;13.430;2023-07-31T16:43:01;26.60;99.90
8465;DHT22;4269;52.458;13.430;2023-07-31T16:45:28;26.50;99.90
8465;DHT22;4269;52.458;13.430;2023-07-31T16:47:54;26.30;99.90
8465;DHT22;4269;52.458;13.430;2023-07-31T16:50:22;25.90;99.90
8465;DHT22;4269;52.458;13.430;2023-07-31T16:52:48;26.30;99.90
8465;DHT22;4269;52.458;13.430;2023-07-31T16:55:15;26.30;99.90
8465;DHT22;4269;52.458;13.430;2023-07-31T16:57:42;26.30;99.90
8465;DHT22;4269;52.458;13.430;2023-07-31T17:00:10;26.00;99.90
8465;DHT22;4269;52.458;13.430;2023-07-31T17:02:37;26.40;99.90
8465;DHT22;4269;52.458;13.430;2023-07-31T17:05:04;26.30;99.90
8465;DHT22;4269;52.458;13.430;2023-07-31T17:07:32;26.30;99.90
8465;DHT22;4269;52.458;13.430;2023-07-31T17:09:59;26.30;99.90